Time;durP1;ratioP1;P1;durP2;ratioP2;P2;SDS_P1;SDS_P2;PMS_P1;PMS_P2;Temp;Humidity;BMP_temperature;BMP_pressure;BME280_temperature;BME280_humidity;BME280_pressure;Samples;Min_cycle;Max_cycle;Signal;HPM_P1;HPM_P2
2022/09/19 00:01:26;;;;;;;4.00;2.38;;;;;;;9.21;73.81;97614.53;5019023;28;20044;-72
2022/09/19 00:03:58;;;;;;;3.65;2.20;;;;;;;9.22;73.34;97612.63;5012508;28;20101;-73
2022/09/19 00:06:26;;;;;;;3.33;1.60;;;;;;;9.19;74.14;97616.75;5009399;28;20045;-73
2022/09/19 00:08:53;;;;;;;2.25;1.00;;;;;;;9.18;73.77;97609.66;5019559;28;20513;-73
2022/09/19 00:11:19;;;;;;;1.95;1.30;;;;;;;9.12;73.14;97613.66;5012436;28;20026;-73
2022/09/19 00:13:47;;;;;;;2.42;1.30;;;;;;;9.11;73.59;97613.94;5012139;28;20386;-72
2022/09/19 00:16:25;;;;;;;2.40;1.70;;;;;;;9.05;74.13;97616.00;5012474;28;20030;-72
2022/09/19 00:18:52;;;;;;;2.38;2.00;;;;;;;9.06;73.81;97620.34;5013449;28;20494;-73
2022/09/19 00:21:25;;;;;;;3.72;1.92;;;;;;;9.06;73.78;97623.88;5023275;28;20482;-73
2022/09/19 00:26:36;;;;;;;1.58;0.88;;;;;;;9.03;74.52;97616.28;5015320;28;20106;-73
2022/09/19 00:29:03;;;;;;;4.18;1.52;;;;;;;9.01;73.77;97613.06;5016910;28;20033;-73
2022/09/19 00:31:28;;;;;;;1.60;0.90;;;;;;;8.99;73.80;97617.22;5012144;28;20490;-73
2022/09/19 00:33:54;;;;;;;3.30;1.30;;;;;;;8.99;73.85;97615.28;5017034;28;20034;-73
2022/09/19 00:36:21;;;;;;;4.93;1.40;;;;;;;8.99;73.44;97622.69;5025819;28;21008;-73
2022/09/19 00:38:46;;;;;;;2.75;1.20;;;;;;;8.95;73.80;97622.50;5023434;28;20034;-73
2022/09/19 00:41:18;;;;;;;1.55;0.90;;;;;;;8.93;74.13;97622.00;5012066;28;20113;-73
2022/09/19 00:43:43;;;;;;;1.92;1.20;;;;;;;8.97;74.09;97622.97;5014041;28;20081;-73
2022/09/19 00:46:09;;;;;;;1.88;1.30;;;;;;;8.97;74.58;97625.72;5020587;28;20168;-73
2022/09/19 00:48:35;;;;;;;2.35;1.55;;;;;;;9.01;74.06;97620.47;5031484;28;20057;-73
2022/09/19 00:51:04;;;;;;;2.35;1.80;;;;;;;9.04;74.36;97617.13;5012521;28;20374;-72
2022/09/19 00:53:31;;;;;;;3.08;1.83;;;;;;;9.03;74.09;97612.75;5012119;28;20033;-73
2022/09/19 00:55:57;;;;;;;3.83;2.17;;;;;;;9.02;73.84;97611.16;5012218;28;20018;-73
2022/09/19 00:58:26;;;;;;;3.22;2.00;;;;;;;9.02;74.23;97617.41;5011732;28;20038;-73
2022/09/19 01:00:52;;;;;;;3.78;1.88;;;;;;;9.01;73.67;97615.00;5012394;28;20030;-73
2022/09/19 01:03:18;;;;;;;3.10;2.10;;;;;;;9.01;74.10;97617.72;5010114;28;20052;-73
2022/09/19 01:06:02;;;;;;;1.95;1.60;;;;;;;8.97;74.07;97622.19;5010208;28;20049;-73
2022/09/19 01:08:46;;;;;;;2.47;1.73;;;;;;;8.99;74.04;97609.81;5011761;28;20046;-73
2022/09/19 01:11:32;;;;;;;2.10;1.30;;;;;;;9.00;74.69;97616.09;5014269;28;20041;-73
2022/09/19 01:14:14;;;;;;;1.60;1.10;;;;;;;9.02;74.70;97617.41;5015804;28;20592;-73
2022/09/19 01:16:50;;;;;;;1.50;1.10;;;;;;;9.04;74.16;97617.13;5012308;28;20029;-73
2022/09/19 01:19:36;;;;;;;2.33;1.25;;;;;;;9.07;74.53;97613.78;5010779;28;20038;-73
2022/09/19 01:22:11;;;;;;;2.90;1.00;;;;;;;9.07;73.95;97608.31;5012864;28;20025;-74
2022/09/19 01:24:55;;;;;;;2.03;0.90;;;;;;;9.12;74.37;97613.66;5015751;28;20107;-73
2022/09/19 01:27:33;;;;;;;1.92;0.90;;;;;;;9.15;74.37;97609.50;5012703;28;20099;-73
2022/09/19 01:30:06;;;;;;;1.20;0.90;;;;;;;9.14;74.55;97611.44;5022202;28;20034;-73
2022/09/19 01:32:42;;;;;;;1.45;0.90;;;;;;;9.12;74.01;97610.94;5010657;28;20121;-73
2022/09/19 01:35:11;;;;;;;2.33;1.02;;;;;;;9.12;74.13;97613.66;5009998;28;20021;-73
2022/09/19 01:37:41;;;;;;;;;;;;;;;9.13;73.56;97612.53;5012757;28;20040;-73
2022/09/19 01:40:11;;;;;;;0.93;0.70;;;;;;;9.11;73.75;97619.44;5023335;28;20031;-73
2022/09/19 01:42:48;;;;;;;1.35;0.70;;;;;;;9.07;74.03;97617.31;5019169;28;20029;-73
2022/09/19 01:45:14;;;;;;;1.88;0.63;;;;;;;9.06;74.32;97614.88;5009982;28;20073;-73
2022/09/19 01:47:58;;;;;;;1.40;0.73;;;;;;;9.05;74.23;97616.78;5018616;28;20056;-73
2022/09/19 01:50:45;;;;;;;0.90;0.80;;;;;;;9.08;74.41;97620.84;5009305;28;20030;-73
2022/09/19 01:53:16;;;;;;;0.93;0.90;;;;;;;9.09;73.92;97617.81;5020176;28;20584;-73
2022/09/19 01:55:53;;;;;;;1.52;0.70;;;;;;;9.09;73.80;97627.94;5012253;28;20490;-73
2022/09/19 01:58:40;;;;;;;1.25;0.63;;;;;;;9.07;74.16;97625.50;5019348;28;20038;-73
2022/09/19 02:01:52;;;;;;;1.40;0.80;;;;;;;9.09;73.97;97626.00;5008998;28;20030;-73
2022/09/19 02:04:20;;;;;;;3.08;0.55;;;;;;;9.13;73.78;97628.13;4991920;28;20046;-73
2022/09/19 02:07:27;;;;;;;1.10;0.80;;;;;;;9.12;74.48;97631.97;5010379;28;20059;-73
2022/09/19 02:10:01;;;;;;;2.03;0.90;;;;;;;9.13;74.14;97631.69;5012152;28;20046;-72
2022/09/19 02:12:31;;;;;;;1.27;0.77;;;;;;;9.13;74.17;97639.91;5010195;28;20433;-73
2022/09/19 02:15:00;;;;;;;1.80;0.90;;;;;;;9.11;73.89;97642.13;5016486;28;20037;-73
2022/09/19 02:17:31;;;;;;;0.82;0.70;;;;;;;9.08;73.92;97632.59;5022209;28;20064;-73
2022/09/19 02:20:22;;;;;;;1.13;0.80;;;;;;;9.04;73.67;97639.00;5009900;28;20061;-73
2022/09/19 02:22:51;;;;;;;1.60;0.82;;;;;;;9.08;73.88;97637.28;5009512;28;20030;-73
2022/09/19 02:25:21;;;;;;;1.10;0.90;;;;;;;9.07;74.22;97630.97;5023759;28;20516;-73
2022/09/19 02:28:03;;;;;;;2.00;0.80;;;;;;;9.06;74.13;97634.03;5010218;28;20037;-73
2022/09/19 02:30:28;;;;;;;1.67;0.80;;;;;;;9.06;73.46;97632.09;5008961;28;20414;-73
2022/09/19 02:32:54;;;;;;;1.30;0.75;;;;;;;9.06;73.90;97643.03;5010383;28;20030;-73
2022/09/19 02:35:34;;;;;;;1.25;0.88;;;;;;;9.04;73.81;97642.53;5012304;28;20036;-73
2022/09/19 02:38:09;;;;;;;0.80;0.70;;;;;;;9.06;73.78;97644.97;5010095;28;20095;-73
2022/09/19 02:40:48;;;;;;;1.27;0.80;;;;;;;9.04;74.27;97647.19;5008803;28;20034;-73
2022/09/19 02:43:46;;;;;;;1.65;0.75;;;;;;;9.02;73.84;97649.44;5014849;28;20079;-73
2022/09/19 02:46:26;;;;;;;0.82;0.70;;;;;;;9.01;73.96;97643.13;5020843;28;20482;-73
2022/09/19 02:49:18;;;;;;;1.38;0.80;;;;;;;8.99;73.66;97645.38;5010741;28;20410;-73
2022/09/19 02:51:54;;;;;;;1.10;0.80;;;;;;;9.01;74.22;97645.06;5016294;28;20050;-73
2022/09/19 02:54:26;;;;;;;2.63;1.20;;;;;;;9.02;73.76;97649.44;5010993;28;20034;-73
2022/09/19 02:56:55;;;;;;;1.42;1.33;;;;;;;9.02;73.77;97652.16;5013447;28;20559;-74
2022/09/19 02:59:28;;;;;;;1.88;1.27;;;;;;;9.00;73.72;97646.19;5012884;28;20025;-74
2022/09/19 03:02:19;;;;;;;1.35;1.10;;;;;;;8.96;73.97;97643.28;5013755;28;20545;-73
2022/09/19 03:04:52;;;;;;;1.55;1.30;;;;;;;8.94;74.11;97640.03;5013500;28;20030;-74
2022/09/19 03:07:25;;;;;;;1.85;1.10;;;;;;;8.93;73.96;97646.63;5013028;28;20070;-73
2022/09/19 03:09:59;;;;;;;2.53;1.30;;;;;;;8.92;73.73;97645.78;5009515;28;20077;-73
2022/09/19 03:13:01;;;;;;;1.60;1.50;;;;;;;8.90;74.12;97644.50;5033765;28;20052;-73
2022/09/19 03:15:38;;;;;;;1.30;1.00;;;;;;;8.87;73.96;97645.91;5016031;28;20026;-73
2022/09/19 03:18:12;;;;;;;1.35;1.05;;;;;;;8.86;74.37;97641.53;5013539;28;20041;-74
2022/09/19 03:20:39;;;;;;;1.25;1.10;;;;;;;8.85;74.10;97641.84;5013757;28;20030;-73
2022/09/19 03:23:06;;;;;;;2.20;1.00;;;;;;;8.82;73.97;97646.00;5023121;28;20056;-74
2022/09/19 03:25:32;;;;;;;3.65;1.00;;;;;;;8.80;73.58;97648.22;5032612;28;20053;-73
2022/09/19 03:27:57;;;;;;;3.20;1.00;;;;;;;8.76;73.74;97648.03;5013109;28;20057;-73
2022/09/19 03:30:23;;;;;;;1.10;0.93;;;;;;;8.74;73.41;97649.47;5012863;28;20033;-73
2022/09/19 03:32:49;;;;;;;1.35;1.00;;;;;;;8.73;73.83;97651.38;5013645;28;20474;-73
2022/09/19 03:35:15;;;;;;;2.08;1.00;;;;;;;8.73;73.37;97647.84;5013375;28;20038;-74
2022/09/19 03:37:41;;;;;;;1.30;1.00;;;;;;;8.75;74.11;97648.34;5012369;28;20052;-74
2022/09/19 03:40:07;;;;;;;1.40;1.08;;;;;;;8.74;73.56;97647.53;5011677;28;20371;-74
2022/09/19 03:42:34;;;;;;;1.73;1.30;;;;;;;8.76;74.07;97647.22;5015087;28;20449;-74
2022/09/19 03:45:00;;;;;;;2.08;1.00;;;;;;;8.79;73.99;97650.16;5031771;28;20036;-74
2022/09/19 03:47:26;;;;;;;2.20;1.40;;;;;;;8.80;73.88;97648.22;5031664;28;20025;-73
2022/09/19 03:49:51;;;;;;;1.70;1.10;;;;;;;8.82;74.19;97651.47;5031989;28;20022;-73
2022/09/19 03:52:18;;;;;;;2.10;0.98;;;;;;;8.85;73.86;97645.38;5023943;28;20034;-74
2022/09/19 03:54:44;;;;;;;1.20;1.10;;;;;;;8.85;73.67;97653.59;5012727;28;20383;-74
2022/09/19 03:57:11;;;;;;;2.28;1.30;;;;;;;8.86;73.95;97655.22;5012828;28;20062;-74
2022/09/19 03:59:39;;;;;;;1.40;1.30;;;;;;;8.87;74.10;97658.78;5022595;28;20036;-73
2022/09/19 04:02:06;;;;;;;3.30;1.50;;;;;;;8.89;73.81;97651.06;5031781;28;20041;-73
2022/09/19 04:04:32;;;;;;;2.50;1.83;;;;;;;8.92;73.51;97659.47;5012867;28;20415;-74
2022/09/19 04:06:57;;;;;;;4.50;2.97;;;;;;;8.94;74.08;97659.19;5012824;28;20034;-73
2022/09/19 04:09:23;;;;;;;11.68;7.35;;;;;;;8.93;74.26;97658.34;5014971;28;20100;-73
2022/09/19 04:11:48;;;;;;;9.68;6.47;;;;;;;8.94;73.34;97653.72;5011645;28;20038;-73
2022/09/19 04:14:14;;;;;;;5.70;3.97;;;;;;;8.97;74.05;97661.28;5008691;28;20037;-74
2022/09/19 04:16:40;;;;;;;3.55;2.60;;;;;;;8.97;73.95;97661.28;5022936;28;20518;-74
2022/09/19 04:19:10;;;;;;;2.70;1.80;;;;;;;8.99;73.69;97669.97;5012081;28;20030;-74
2022/09/19 04:21:36;;;;;;;2.80;1.77;;;;;;;9.02;74.35;97672.09;5010898;28;20029;-73
2022/09/19 04:24:01;;;;;;;2.35;1.80;;;;;;;9.04;74.43;97671.81;5015010;28;20458;-74
2022/09/19 04:26:27;;;;;;;3.30;1.70;;;;;;;9.01;73.89;97678.69;5013229;28;20080;-74
2022/09/19 04:28:52;;;;;;;2.97;1.52;;;;;;;8.98;74.10;97671.09;5011465;28;20030;-74
2022/09/19 04:31:18;;;;;;;2.50;1.42;;;;;;;9.00;74.06;97676.28;5017376;28;20069;-74
2022/09/19 04:33:43;;;;;;;2.80;1.35;;;;;;;8.99;73.44;97672.72;5010635;28;20038;-74
2022/09/19 04:36:09;;;;;;;3.00;1.73;;;;;;;9.01;74.03;97669.69;5011060;28;20022;-73
2022/09/19 04:38:36;;;;;;;2.72;1.50;;;;;;;9.03;74.22;97681.13;5012139;28;21346;-73
2022/09/19 04:41:03;;;;;;;1.77;1.40;;;;;;;9.03;73.82;97678.41;5012173;28;20037;-73
2022/09/19 04:43:29;;;;;;;2.60;1.63;;;;;;;9.02;73.79;97683.06;5009822;28;20030;-73
2022/09/19 04:45:56;;;;;;;2.35;1.50;;;;;;;9.01;74.33;97691.56;5025344;28;20477;-73
2022/09/19 04:48:23;;;;;;;4.82;1.98;;;;;;;8.99;73.72;97691.06;5026295;28;20688;-73
2022/09/19 04:50:50;;;;;;;3.38;2.38;;;;;;;8.94;73.70;97694.72;5009715;28;20092;-72
2022/09/19 04:53:18;;;;;;;4.22;2.33;;;;;;;8.90;73.96;97693.72;5013538;28;20091;-72
2022/09/19 04:55:47;;;;;;;3.42;2.40;;;;;;;8.89;73.28;97690.16;5031638;28;20029;-73
2022/09/19 04:58:15;;;;;;;3.35;2.30;;;;;;;8.88;73.69;97702.19;5031820;28;20029;-73
2022/09/19 05:00:40;;;;;;;4.60;2.50;;;;;;;8.88;73.94;97707.69;5030956;28;20021;-73
2022/09/19 05:03:07;;;;;;;4.22;2.58;;;;;;;8.89;73.68;97705.75;5029143;28;20029;-74
2022/09/19 05:05:38;;;;;;;4.53;2.67;;;;;;;8.91;73.34;97712.53;5028342;28;20493;-73
2022/09/19 05:08:05;;;;;;;4.95;2.50;;;;;;;8.93;73.63;97713.03;5028840;28;20410;-74
2022/09/19 05:10:33;;;;;;;4.68;2.22;;;;;;;8.93;73.50;97706.78;5005111;28;20029;-72
2022/09/19 05:12:59;;;;;;;5.07;3.30;;;;;;;8.92;73.40;97699.69;5010467;28;20120;-74
2022/09/19 05:15:25;;;;;;;4.03;3.05;;;;;;;8.91;73.37;97707.06;5009690;28;20787;-74
2022/09/19 05:17:55;;;;;;;2.95;2.53;;;;;;;8.91;73.63;97709.00;5011085;28;20112;-74
2022/09/19 05:20:20;;;;;;;;;;;;;;;8.89;74.04;97711.22;5011748;28;20116;-74
2022/09/19 05:22:46;;;;;;;3.38;2.03;;;;;;;8.88;73.57;97717.81;5011218;28;20004;-74
2022/09/19 05:25:15;;;;;;;4.07;2.20;;;;;;;8.88;73.87;97715.06;5011686;28;20065;-74
2022/09/19 05:27:41;;;;;;;2.85;1.90;;;;;;;8.88;73.75;97726.81;5010300;28;20018;-74
2022/09/19 05:30:08;;;;;;;3.58;2.00;;;;;;;8.89;73.68;97719.44;5008991;28;20386;-74
2022/09/19 05:32:34;;;;;;;3.53;1.73;;;;;;;8.90;73.96;97718.31;5010994;28;20045;-74
2022/09/19 05:35:00;;;;;;;1.98;1.65;;;;;;;8.94;73.96;97736.53;5011378;28;20510;-74
2022/09/19 05:37:26;;;;;;;2.75;2.00;;;;;;;8.98;73.31;97733.22;5011941;28;20128;-74
2022/09/19 05:39:52;;;;;;;3.67;2.35;;;;;;;9.03;74.17;97733.09;5011079;28;20552;-74
2022/09/19 05:42:17;;;;;;;6.22;2.30;;;;;;;9.07;74.63;97742.34;5011088;28;20026;-74
2022/09/19 05:44:43;;;;;;;4.68;2.45;;;;;;;9.11;74.06;97743.34;5011295;28;20437;-74
2022/09/19 05:47:09;;;;;;;3.13;2.00;;;;;;;9.16;73.80;97748.72;5009145;28;20040;-74
2022/09/19 05:49:35;;;;;;;3.50;2.22;;;;;;;9.19;73.81;97744.56;5008878;28;20022;-73
2022/09/19 05:53:51;;;;;;;4.13;2.00;;;;;;;9.23;73.76;97748.31;5009182;28;20121;-75
2022/09/19 05:54:46;;;;;;;2.50;1.80;;;;;;;9.27;73.55;97753.97;5002050;28;20621;-73
2022/09/19 05:57:13;;;;;;;3.05;2.10;;;;;;;9.27;74.03;97753.97;5005623;28;20025;-73
2022/09/19 05:59:39;;;;;;;8.00;4.10;;;;;;;9.29;74.07;97768.97;5008024;28;20030;-74
2022/09/19 06:02:05;;;;;;;8.55;5.05;;;;;;;9.31;74.10;97760.44;5009945;28;20045;-75
2022/09/19 06:04:30;;;;;;;7.07;4.25;;;;;;;9.32;74.18;97760.16;5010483;28;20072;-76
2022/09/19 06:06:56;;;;;;;5.38;3.47;;;;;;;9.30;73.96;97773.34;5009305;28;20034;-73
2022/09/19 06:09:21;;;;;;;5.35;2.92;;;;;;;9.30;73.83;97769.78;5006245;28;20367;-74
2022/09/19 06:11:47;;;;;;;5.22;3.13;;;;;;;9.33;74.19;97772.72;5005096;28;20045;-76
2022/09/19 06:14:15;;;;;;;7.88;3.60;;;;;;;9.36;74.08;97774.03;5009424;28;20033;-74
2022/09/19 06:16:41;;;;;;;6.03;3.55;;;;;;;9.40;73.81;97777.78;5019137;28;20033;-74
2022/09/19 06:19:08;;;;;;;7.55;3.80;;;;;;;9.47;73.72;97775.44;5028845;28;20037;-73
2022/09/19 06:21:34;;;;;;;4.97;3.47;;;;;;;9.57;74.41;97776.34;5013185;28;20030;-75
2022/09/19 06:24:01;;;;;;;4.20;3.10;;;;;;;9.64;74.34;97784.94;5009036;28;20402;-74
2022/09/19 06:26:27;;;;;;;5.97;3.63;;;;;;;9.71;74.50;97782.59;5006835;28;20601;-74
2022/09/19 06:28:53;;;;;;;7.55;3.35;;;;;;;9.75;73.92;97782.81;5007686;28;20033;-75
2022/09/19 06:31:18;;;;;;;4.75;3.30;;;;;;;9.78;74.01;97783.00;5007653;28;20072;-74
2022/09/19 06:33:44;;;;;;;4.68;3.30;;;;;;;9.87;74.48;97785.00;5006141;28;20084;-73
2022/09/19 06:36:10;;;;;;;4.60;2.97;;;;;;;9.95;74.02;97792.50;5007755;28;20560;-75
2022/09/19 06:38:36;;;;;;;6.90;4.03;;;;;;;10.02;74.60;97786.59;5025947;28;20046;-74
2022/09/19 06:41:06;;;;;;;5.72;2.95;;;;;;;10.02;73.83;97795.59;5016895;28;20040;-72
2022/09/19 06:43:31;;;;;;;5.07;2.63;;;;;;;10.05;73.85;97794.19;5007635;28;20393;-74
2022/09/19 06:45:57;;;;;;;6.30;3.00;;;;;;;10.07;73.48;97797.44;5005089;28;20109;-73
2022/09/19 06:48:23;;;;;;;6.45;3.00;;;;;;;10.12;73.91;97798.13;5003110;28;20683;-73
2022/09/19 06:50:49;;;;;;;60.30;17.50;;;;;;;10.12;74.05;97808.28;5006809;28;20030;-73
2022/09/19 06:53:17;;;;;;;44.03;17.13;;;;;;;10.10;73.67;97799.56;5008417;28;20022;-73
2022/09/19 06:55:43;;;;;;;30.85;11.75;;;;;;;10.11;73.44;97807.47;5008768;28;20046;-72
2022/09/19 06:58:11;;;;;;;15.15;7.03;;;;;;;10.10;74.23;97813.25;5022469;28;20018;-71
2022/09/19 07:00:38;;;;;;;8.07;4.18;;;;;;;10.06;73.11;97807.56;5018443;28;20026;-71
2022/09/19 07:03:24;;;;;;;5.38;2.92;;;;;;;10.06;73.80;97812.25;5011241;28;20041;-72
2022/09/19 07:05:51;;;;;;;7.38;3.50;;;;;;;10.08;73.41;97813.56;5002456;28;20631;-72
2022/09/19 07:08:17;;;;;;;6.70;3.70;;;;;;;10.06;73.38;97812.25;5005495;28;20395;-72
2022/09/19 07:10:43;;;;;;;6.70;3.80;;;;;;;10.09;73.53;97815.19;5015424;28;20034;-73
2022/09/19 07:13:13;;;;;;;6.95;4.10;;;;;;;10.09;73.39;97817.13;5007293;28;20026;-73
2022/09/19 07:15:40;;;;;;;8.25;4.05;;;;;;;10.13;73.79;97824.41;5006681;28;20042;-72
2022/09/19 07:18:08;;;;;;;7.68;4.63;;;;;;;10.15;74.03;97820.53;5021867;28;20062;-71
2022/09/19 07:20:34;;;;;;;8.05;4.30;;;;;;;10.14;73.00;97825.22;5007212;28;20068;-74
2022/09/19 07:23:01;;;;;;;8.82;4.70;;;;;;;10.17;73.35;97827.34;5005179;28;20038;-73
2022/09/19 07:25:28;;;;;;;7.68;4.78;;;;;;;10.21;73.87;97824.78;5012174;28;20025;-73
2022/09/19 07:27:58;;;;;;;7.70;5.25;;;;;;;10.26;74.00;97828.22;5009749;28;20092;-74
2022/09/19 07:30:25;;;;;;;8.52;6.05;;;;;;;10.30;74.37;97830.34;5004365;28;20033;-71
2022/09/19 07:32:54;;;;;;;9.07;5.40;;;;;;;10.28;74.16;97836.13;5019137;28;20028;-71
2022/09/19 07:35:19;;;;;;;8.40;5.72;;;;;;;10.28;73.76;97833.41;5027155;28;20021;-71
2022/09/19 07:37:49;;;;;;;8.20;4.80;;;;;;;10.33;73.95;97848.91;5014125;28;20414;-72
2022/09/19 07:40:15;;;;;;;5.63;4.07;;;;;;;10.34;74.10;97840.38;5019237;28;20049;-73
2022/09/19 07:42:40;;;;;;;7.35;4.72;;;;;;;10.35;74.47;97847.50;5011425;28;20398;-73
2022/09/19 07:45:06;;;;;;;7.45;4.63;;;;;;;10.30;73.73;97852.25;5013075;28;20247;-72
2022/09/19 07:47:32;;;;;;;10.30;6.68;;;;;;;10.23;73.49;97852.69;5012503;28;20033;-72
2022/09/19 07:49:58;;;;;;;7.95;4.63;;;;;;;10.09;73.51;97848.06;5011332;28;20144;-73
2022/09/19 07:52:24;;;;;;;7.57;5.47;;;;;;;10.01;74.08;97851.53;5008475;28;20030;-72
2022/09/19 07:54:50;;;;;;;5.70;4.28;;;;;;;9.93;73.82;97852.25;5015149;28;20096;-72
2022/09/19 07:57:16;;;;;;;7.47;5.35;;;;;;;9.86;74.43;97857.34;5005593;28;20038;-73
2022/09/19 07:59:42;;;;;;;5.18;2.70;;;;;;;9.77;73.32;97858.06;5013888;28;20138;-75
2022/09/19 08:02:09;;;;;;;3.20;1.80;;;;;;;9.75;73.48;97860.28;5021269;28;20022;-74
2022/09/19 08:04:36;;;;;;;3.33;2.15;;;;;;;9.75;73.45;97862.22;5009648;28;20038;-73
2022/09/19 08:07:02;;;;;;;2.80;1.70;;;;;;;9.75;73.79;97863.03;5010505;28;20526;-73
2022/09/19 08:09:27;;;;;;;2.55;1.20;;;;;;;9.79;74.52;97863.22;5015204;28;20061;-74
2022/09/19 08:11:52;;;;;;;2.13;1.25;;;;;;;9.77;73.88;97865.47;5017176;28;20857;-73
2022/09/19 08:14:18;;;;;;;1.38;0.60;;;;;;;9.70;72.96;97863.13;5012875;28;20130;-72
2022/09/19 08:16:43;;;;;;;0.95;0.60;;;;;;;9.67;73.59;97878.25;5016320;28;20466;-72
2022/09/19 08:19:09;;;;;;;2.88;1.50;;;;;;;9.67;73.14;97874.69;5021134;28;20021;-72
2022/09/19 08:21:34;;;;;;;1.85;0.90;;;;;;;9.66;73.71;97882.09;5010730;28;20053;-73
2022/09/19 08:24:00;;;;;;;1.52;1.25;;;;;;;9.67;73.71;97874.69;5008736;28;20079;-72
2022/09/19 08:26:26;;;;;;;1.00;0.70;;;;;;;9.67;73.08;97877.44;5012239;28;20029;-73
2022/09/19 08:28:51;;;;;;;1.10;1.00;;;;;;;9.70;73.05;97878.75;5010826;28;20037;-72
2022/09/19 08:31:17;;;;;;;0.80;0.80;;;;;;;9.74;73.77;97880.56;5020004;28;20093;-73
2022/09/19 08:33:43;;;;;;;0.90;0.80;;;;;;;9.71;72.95;97881.19;5023120;28;20026;-72
2022/09/19 08:36:10;;;;;;;0.90;0.65;;;;;;;9.71;73.25;97886.66;5010848;28;20100;-72
2022/09/19 08:38:36;;;;;;;0.88;0.60;;;;;;;9.69;73.42;97883.41;5011094;28;20026;-72
2022/09/19 08:41:13;;;;;;;0.60;0.40;;;;;;;9.74;73.40;97886.06;5012611;28;20040;-72
2022/09/19 08:43:38;;;;;;;1.67;1.10;;;;;;;9.74;73.75;97872.34;5029533;28;20109;-72
2022/09/19 08:46:15;;;;;;;1.77;0.68;;;;;;;9.74;73.50;97879.78;5018216;28;20109;-72
2022/09/19 08:49:04;;;;;;;1.95;1.02;;;;;;;9.82;73.98;97890.81;5010817;28;20053;-72
2022/09/19 08:51:44;;;;;;;2.05;1.23;;;;;;;9.89;73.90;97884.13;5009148;28;20030;-72
2022/09/19 08:54:14;;;;;;;2.72;1.55;;;;;;;9.99;73.98;97894.84;5010243;28;20029;-71
2022/09/19 08:56:43;;;;;;;1.50;0.60;;;;;;;10.15;73.57;97891.78;5010653;28;20033;-71
2022/09/19 08:59:15;;;;;;;1.13;0.80;;;;;;;10.28;73.20;97891.75;5010343;28;20034;-72
2022/09/19 09:01:41;;;;;;;0.40;0.40;;;;;;;10.38;73.48;97892.66;5010595;28;20101;-71
2022/09/19 09:04:30;;;;;;;0.77;0.45;;;;;;;10.46;73.16;97889.22;5009969;28;20679;-72
2022/09/19 09:07:14;;;;;;;0.75;0.60;;;;;;;10.55;72.58;97892.84;5010203;28;20038;-72
2022/09/19 09:09:52;;;;;;;1.00;0.70;;;;;;;10.62;73.69;97892.41;5024466;28;20088;-71
2022/09/19 09:12:32;;;;;;;1.23;0.60;;;;;;;10.67;72.22;97892.28;5029935;28;20100;-72
2022/09/19 09:15:28;;;;;;;1.25;0.80;;;;;;;10.72;72.62;97889.41;5029561;28;20087;-71
2022/09/19 09:18:31;;;;;;;1.60;0.70;;;;;;;10.76;72.90;97888.81;5027926;28;20121;-72
2022/09/19 09:21:12;;;;;;;1.73;0.90;;;;;;;10.86;72.32;97905.00;5029513;28;20489;-72
2022/09/19 09:23:50;;;;;;;5.35;1.60;;;;;;;10.88;72.51;97900.00;5024428;28;20548;-73
2022/09/19 09:26:22;;;;;;;3.38;1.30;;;;;;;10.94;72.65;97890.53;5009181;28;20470;-70
2022/09/19 09:29:03;;;;;;;1.85;0.93;;;;;;;11.00;72.64;97899.47;5009805;28;20034;-71
2022/09/19 09:31:34;;;;;;;6.85;2.33;;;;;;;11.03;72.05;97898.81;5009682;28;20382;-71
2022/09/19 09:34:14;;;;;;;5.30;2.00;;;;;;;11.00;71.96;97903.00;5009235;28;20540;-72
2022/09/19 09:36:55;;;;;;;3.60;1.58;;;;;;;11.00;71.79;97894.78;5009773;28;20105;-72
2022/09/19 09:39:58;;;;;;;5.25;2.00;;;;;;;10.92;71.78;97908.44;5009584;28;20467;-71
2022/09/19 09:42:50;;;;;;;1.60;0.85;;;;;;;10.79;71.58;97902.69;5009550;28;20057;-71
2022/09/19 09:45:38;;;;;;;1.52;0.85;;;;;;;10.73;71.43;97895.69;5010592;28;20033;-71
2022/09/19 09:48:14;;;;;;;1.30;0.80;;;;;;;10.70;71.04;97902.63;5028436;28;20029;-71
2022/09/19 09:50:48;;;;;;;1.42;0.70;;;;;;;10.70;71.30;97896.31;5012674;28;20022;-72
2022/09/19 09:53:16;;;;;;;1.27;0.70;;;;;;;10.73;71.36;97901.19;5009602;28;20053;-71
2022/09/19 09:58:39;;;;;;;1.23;0.88;;;;;;;10.99;71.73;97898.63;5029108;28;20420;-71
2022/09/19 10:04:26;;;;;;;1.50;0.80;;;;;;;11.31;71.29;97906.91;5028618;28;20443;-71
2022/09/19 10:07:26;;;;;;;1.42;0.90;;;;;;;11.25;70.53;97906.22;5028991;28;20029;-71
2022/09/19 10:10:11;;;;;;;1.25;0.70;;;;;;;11.14;70.44;97907.63;5006272;28;20050;-71
2022/09/19 10:12:54;;;;;;;1.95;1.38;;;;;;;11.10;70.46;97912.09;5009086;28;20373;-71
2022/09/19 10:15:24;;;;;;;3.00;1.95;;;;;;;11.05;70.35;97918.50;5008254;28;20485;-71
2022/09/19 10:17:59;;;;;;;2.47;1.75;;;;;;;10.99;70.04;97923.34;5008925;28;20029;-71
2022/09/19 10:20:38;;;;;;;2.28;1.58;;;;;;;10.92;70.51;97919.41;5008414;28;20026;-70
2022/09/19 10:23:11;;;;;;;1.88;1.67;;;;;;;10.91;71.09;97923.28;5007858;28;20442;-74
2022/09/19 10:25:37;;;;;;;3.47;2.75;;;;;;;10.96;70.98;97923.16;5022657;28;20109;-71
2022/09/19 10:28:21;;;;;;;1.65;1.55;;;;;;;11.06;70.76;97916.59;5008049;28;20105;-71
2022/09/19 10:30:55;;;;;;;1.67;1.13;;;;;;;11.12;70.91;97927.13;5008844;28;20118;-70
2022/09/19 10:33:41;;;;;;;1.90;1.70;;;;;;;11.15;71.03;97932.00;4995933;28;20041;-71
2022/09/19 10:36:32;;;;;;;1.40;1.17;;;;;;;11.15;71.11;97942.16;5004887;28;20040;-71
2022/09/19 10:39:00;;;;;;;1.20;0.70;;;;;;;11.00;70.25;97957.88;5008952;28;20116;-72
2022/09/19 10:41:33;;;;;;;1.08;0.60;;;;;;;10.71;69.69;97961.03;5008577;28;20049;-73
2022/09/19 10:44:00;;;;;;;2.83;1.38;;;;;;;10.45;69.97;97967.09;5014052;28;20033;-71
2022/09/19 10:46:36;;;;;;;1.52;1.35;;;;;;;10.24;70.21;97966.69;5028291;28;20029;-72
2022/09/19 10:49:05;;;;;;;1.30;1.20;;;;;;;9.99;70.26;97974.28;5028662;28;20040;-72
2022/09/19 10:51:35;;;;;;;7.60;3.42;;;;;;;9.82;70.39;97978.47;5028088;28;20025;-72
2022/09/19 10:54:10;;;;;;;;;;;;;;;9.73;71.24;97971.25;5018916;28;20030;-72
2022/09/19 10:56:39;;;;;;;4.10;2.47;;;;;;;9.71;70.97;97973.47;5008731;28;19914;-72
2022/09/19 10:59:13;;;;;;;3.17;1.30;;;;;;;9.71;71.64;97968.81;5008542;28;20036;-72
2022/09/19 11:01:39;;;;;;;2.85;2.22;;;;;;;9.74;70.85;97970.13;5012651;28;20026;-72
2022/09/19 11:04:10;;;;;;;3.40;2.97;;;;;;;9.78;71.90;97963.75;5008079;28;20462;-72
2022/09/19 11:07:16;;;;;;;5.00;3.40;;;;;;;9.86;71.73;97958.69;5008469;28;20026;-72
2022/09/19 11:09:42;;;;;;;3.88;3.15;;;;;;;9.93;71.91;97959.88;5021395;28;20144;-72
2022/09/19 11:12:16;;;;;;;2.58;1.73;;;;;;;10.01;72.56;97957.56;5014989;28;20088;-72
2022/09/19 11:14:48;;;;;;;5.47;2.45;;;;;;;10.16;72.03;97962.75;5023179;28;20030;-72
2022/09/19 11:17:40;;;;;;;3.78;1.80;;;;;;;10.28;72.38;97954.78;5023453;28;20041;-72
2022/09/19 11:20:16;;;;;;;2.33;1.60;;;;;;;10.37;72.57;97952.16;5013683;28;20506;-72
2022/09/19 11:22:47;;;;;;;1.98;1.50;;;;;;;10.41;71.98;97953.16;5016713;28;20610;-72
2022/09/19 11:25:25;;;;;;;2.55;1.23;;;;;;;10.48;72.04;97963.75;5013099;28;20755;-71
2022/09/19 11:28:28;;;;;;;1.38;1.10;;;;;;;10.62;71.71;97952.72;5009504;28;20022;-72
2022/09/19 11:31:17;;;;;;;0.60;0.60;;;;;;;10.76;72.44;97958.16;5017786;28;20107;-72
2022/09/19 11:34:02;;;;;;;2.08;1.10;;;;;;;10.85;72.58;97958.22;5030048;28;20030;-71
2022/09/19 11:36:46;;;;;;;2.80;1.90;;;;;;;10.95;72.07;97970.91;5024666;28;20017;-71
2022/09/19 11:39:25;;;;;;;3.92;2.13;;;;;;;11.07;71.57;97959.38;5025756;28;20044;-71
2022/09/19 11:42:10;;;;;;;7.37;3.50;;;;;;;11.15;71.70;97961.38;5010565;28;20029;-71
2022/09/19 11:44:39;;;;;;;5.15;2.08;;;;;;;11.19;71.42;97964.31;5017556;28;20024;-72
2022/09/19 11:47:13;;;;;;;5.63;1.92;;;;;;;11.19;72.16;97959.63;5027609;28;20029;-72
2022/09/19 11:49:52;;;;;;;1.67;1.33;;;;;;;11.20;71.53;97972.25;5031546;28;20025;-72
2022/09/19 11:52:26;;;;;;;3.80;2.00;;;;;;;11.12;71.80;97971.03;5030055;28;20112;-72
2022/09/19 11:55:17;;;;;;;1.55;1.20;;;;;;;11.07;71.67;97968.41;5030309;28;20025;-72
2022/09/19 11:58:21;;;;;;;2.92;1.20;;;;;;;11.12;71.35;97973.78;5029656;28;20033;-71
2022/09/19 12:00:57;;;;;;;2.78;1.60;;;;;;;11.20;71.29;97976.91;5007381;28;20498;-72
2022/09/19 12:03:27;;;;;;;4.93;1.80;;;;;;;11.21;71.12;97971.09;5021772;28;20523;-72
2022/09/19 12:06:11;;;;;;;2.83;1.50;;;;;;;11.26;71.24;97978.41;5031990;28;20045;-72
2022/09/19 12:08:48;;;;;;;1.73;1.20;;;;;;;11.35;71.23;97970.22;5022699;28;20087;-72
2022/09/19 12:11:20;;;;;;;2.08;1.30;;;;;;;11.51;71.77;97967.88;5011745;28;20044;-73